createdAt,value
2018-05-16T00:00:09.645Z,11.30
2018-05-16T00:02:36.203Z,10.60
2018-05-16T00:05:04.549Z,12.00
2018-05-16T00:07:30.988Z,11.23
2018-05-16T00:09:57.353Z,11.60
2018-05-16T00:12:23.546Z,11.53
2018-05-16T00:14:50.734Z,11.80
2018-05-16T00:17:16.922Z,14.17
2018-05-16T00:19:43.594Z,11.63
2018-05-16T00:22:09.786Z,13.10
2018-05-16T00:24:35.920Z,13.67
2018-05-16T00:27:02.181Z,14.53
2018-05-16T00:29:28.595Z,14.20
2018-05-16T00:31:55.362Z,14.73
2018-05-16T00:34:21.777Z,14.63
2018-05-16T00:36:48.011Z,15.57
2018-05-16T00:39:14.140Z,18.60
2018-05-16T00:41:41.126Z,17.00
2018-05-16T00:44:07.263Z,17.33
2018-05-16T00:46:33.808Z,17.53
2018-05-16T00:49:00.201Z,17.50
2018-05-16T00:51:30.349Z,18.00
2018-05-16T00:53:56.733Z,14.73
2018-05-16T00:56:23.009Z,14.13
2018-05-16T00:58:49.267Z,14.20
2018-05-16T01:01:15.916Z,13.53
2018-05-16T01:03:42.408Z,12.07
2018-05-16T01:06:08.808Z,10.83
2018-05-16T01:08:35.061Z,9.57
2018-05-16T01:11:02.260Z,7.67
2018-05-16T01:13:35.023Z,8.27
2018-05-16T01:16:01.584Z,7.20
2018-05-16T01:18:27.802Z,5.83
2018-05-16T01:20:57.795Z,6.03
2018-05-16T01:23:23.908Z,6.20
2018-05-16T01:25:50.224Z,6.23
2018-05-16T01:28:16.365Z,5.57
2018-05-16T01:30:42.814Z,5.97
2018-05-16T01:33:09.384Z,5.07
2018-05-16T01:35:35.594Z,6.57
2018-05-16T01:38:19.596Z,5.13
2018-05-16T01:40:45.802Z,7.50
2018-05-16T01:43:12.725Z,6.13
2018-05-16T01:45:38.897Z,6.67
2018-05-16T01:48:05.560Z,6.77
2018-05-16T01:50:31.887Z,5.33
2018-05-16T01:52:58.098Z,7.93
2018-05-16T01:55:24.378Z,5.80
2018-05-16T01:57:50.554Z,5.60
2018-05-16T02:00:17.506Z,5.90
2018-05-16T02:02:43.704Z,5.73
2018-05-16T02:05:10.265Z,6.07
2018-05-16T02:07:36.453Z,5.83
2018-05-16T02:10:02.650Z,5.63
2018-05-16T02:12:29.855Z,6.77
2018-05-16T02:14:56.369Z,7.63
2018-05-16T02:17:26.433Z,6.03
2018-05-16T02:19:52.836Z,6.33
2018-05-16T02:22:19.086Z,6.30
2018-05-16T02:24:45.290Z,6.70
2018-05-16T02:27:12.244Z,6.10
2018-05-16T02:29:38.414Z,5.70
2018-05-16T02:32:05.322Z,6.03
2018-05-16T02:37:04.604Z,5.97
2018-05-16T02:39:30.823Z,5.20
2018-05-16T02:41:57.814Z,6.73
2018-05-16T02:44:24.041Z,5.97
2018-05-16T02:46:50.273Z,5.77
2018-05-16T02:49:18.354Z,5.40
2018-05-16T02:51:44.741Z,5.53
2018-05-16T02:54:10.932Z,5.27
2018-05-16T02:56:37.234Z,4.93
2018-05-16T02:59:11.144Z,4.60
2018-05-16T03:01:38.462Z,5.37
2018-05-16T03:04:05.082Z,4.67
2018-05-16T03:06:33.093Z,4.57
2018-05-16T03:08:59.364Z,4.47
2018-05-16T03:11:25.679Z,6.00
2018-05-16T03:13:52.291Z,5.30
2018-05-16T03:16:19.526Z,5.47
2018-05-16T03:18:46.147Z,4.57
2018-05-16T03:21:12.726Z,4.60
2018-05-16T03:23:41.945Z,4.53
2018-05-16T03:26:08.176Z,5.37
2018-05-16T03:28:34.604Z,4.93
2018-05-16T03:31:01.928Z,4.70
2018-05-16T03:33:28.377Z,5.93
2018-05-16T03:35:54.845Z,5.10
2018-05-16T03:38:26.663Z,8.40
2018-05-16T03:40:53.182Z,5.53
2018-05-16T03:43:22.834Z,4.30
2018-05-16T03:45:49.288Z,5.00
2018-05-16T03:48:15.659Z,4.90
2018-05-16T03:50:42.290Z,6.03
2018-05-16T03:53:08.988Z,6.03
2018-05-16T03:55:35.173Z,5.80
2018-05-16T03:58:22.843Z,5.73
2018-05-16T04:01:02.494Z,6.93
2018-05-16T04:03:41.065Z,13.57
2018-05-16T04:06:07.368Z,6.20
2018-05-16T04:08:33.528Z,7.20
2018-05-16T04:11:00.054Z,6.33
2018-05-16T04:13:26.279Z,5.17
2018-05-16T04:15:52.624Z,5.63
2018-05-16T04:18:18.975Z,5.20
2018-05-16T04:20:53.308Z,6.77
2018-05-16T04:23:19.521Z,5.47
2018-05-16T04:25:46.995Z,7.73
2018-05-16T04:28:13.257Z,6.13
2018-05-16T04:30:39.463Z,6.50
2018-05-16T04:33:05.651Z,5.53
2018-05-16T04:35:43.069Z,7.47
2018-05-16T04:38:09.696Z,6.17
2018-05-16T04:40:37.118Z,6.30
2018-05-16T04:43:04.041Z,6.43
2018-05-16T04:45:31.579Z,5.83
2018-05-16T04:47:58.033Z,5.47
2018-05-16T04:50:24.164Z,5.50
2018-05-16T04:52:50.357Z,5.93
2018-05-16T04:55:33.654Z,5.03
2018-05-16T05:01:15.170Z,4.97
2018-05-16T05:03:41.401Z,5.30
2018-05-16T05:06:08.342Z,4.90
2018-05-16T05:08:34.573Z,5.70
2018-05-16T05:11:00.816Z,5.57
2018-05-16T05:13:34.367Z,5.10
2018-05-16T05:16:01.866Z,7.30
2018-05-16T05:18:36.853Z,5.63
2018-05-16T05:21:03.039Z,5.27
2018-05-16T05:23:29.494Z,5.57
2018-05-16T05:25:55.747Z,6.60
2018-05-16T05:28:21.964Z,5.07
2018-05-16T05:30:49.369Z,6.00
2018-05-16T05:33:15.559Z,5.13
2018-05-16T05:35:47.907Z,6.83
2018-05-16T05:41:07.090Z,5.80
2018-05-16T05:43:33.291Z,7.07
2018-05-16T05:46:02.334Z,6.30
2018-05-16T05:48:28.553Z,6.27
2018-05-16T05:51:08.366Z,10.27
2018-05-16T05:54:00.721Z,6.57
2018-05-16T05:56:27.374Z,5.83
2018-05-16T05:58:53.577Z,7.13
2018-05-16T06:01:24.011Z,6.80
2018-05-16T06:03:52.742Z,7.63
2018-05-16T06:06:19.011Z,6.17
2018-05-16T06:08:45.592Z,6.23
2018-05-16T06:11:12.294Z,5.47
2018-05-16T06:13:38.721Z,7.13
2018-05-16T06:16:05.154Z,9.03
2018-05-16T06:18:32.119Z,7.17
2018-05-16T06:20:59.560Z,6.40
2018-05-16T06:23:26.124Z,9.40
2018-05-16T06:25:52.515Z,8.03
2018-05-16T06:28:19.934Z,6.53
2018-05-16T06:30:46.271Z,8.07
2018-05-16T06:33:12.924Z,10.13
2018-05-16T06:35:39.259Z,6.20
2018-05-16T06:40:37.909Z,5.63
2018-05-16T06:43:04.289Z,7.37
2018-05-16T06:45:30.622Z,6.20
2018-05-16T06:47:57.286Z,5.57
2018-05-16T06:50:23.609Z,8.03
2018-05-16T06:52:50.073Z,7.27
2018-05-16T06:55:16.371Z,6.43
2018-05-16T06:57:42.980Z,6.00
2018-05-16T07:00:09.377Z,6.47
2018-05-16T07:05:15.299Z,5.00
2018-05-16T07:07:41.465Z,5.10
2018-05-16T07:10:07.767Z,8.47
2018-05-16T07:12:34.138Z,5.00
2018-05-16T07:15:00.630Z,5.23
2018-05-16T07:17:26.846Z,5.53
2018-05-16T07:19:53.195Z,6.90
2018-05-16T07:22:19.487Z,6.77
2018-05-16T07:24:45.985Z,4.77
2018-05-16T07:27:13.033Z,4.77
2018-05-16T07:29:43.856Z,5.67
2018-05-16T07:32:12.157Z,5.47
2018-05-16T07:34:41.342Z,4.93
2018-05-16T07:37:07.678Z,6.40
2018-05-16T07:39:34.925Z,5.60
2018-05-16T07:42:01.486Z,8.13
2018-05-16T07:44:27.862Z,7.30
2018-05-16T07:46:54.215Z,6.80
2018-05-16T07:49:23.521Z,7.53
2018-05-16T07:51:49.901Z,8.23
2018-05-16T07:54:16.552Z,8.33
2018-05-16T07:56:42.959Z,8.77
2018-05-16T07:59:09.763Z,10.77
2018-05-16T08:01:37.164Z,9.00
2018-05-16T08:04:03.364Z,8.77
2018-05-16T08:06:31.119Z,7.33
2018-05-16T08:09:01.406Z,9.30
2018-05-16T08:11:41.600Z,12.10
2018-05-16T08:14:09.191Z,9.53
2018-05-16T08:16:40.357Z,9.67
2018-05-16T08:19:15.878Z,10.77
2018-05-16T08:21:42.659Z,9.80
2018-05-16T08:24:10.176Z,9.97
2018-05-16T08:26:40.741Z,12.23
2018-05-16T08:29:10.406Z,10.70
2018-05-16T08:31:38.626Z,10.93
2018-05-16T08:34:05.149Z,10.30
2018-05-16T08:36:31.590Z,11.20
2018-05-16T08:38:57.989Z,11.27
2018-05-16T08:41:24.251Z,14.70
2018-05-16T08:43:50.802Z,10.80
2018-05-16T08:46:17.336Z,12.53
2018-05-16T08:48:43.789Z,12.87
2018-05-16T08:51:10.337Z,12.97
2018-05-16T08:53:36.646Z,12.20
2018-05-16T08:56:02.959Z,12.93
2018-05-16T08:58:30.619Z,14.37
2018-05-16T09:03:29.933Z,9.47
2018-05-16T09:05:56.382Z,6.80
2018-05-16T09:08:23.467Z,6.57
2018-05-16T09:10:49.791Z,5.17
2018-05-16T09:13:20.573Z,6.27
2018-05-16T09:15:50.904Z,5.83
2018-05-16T09:18:17.468Z,5.50
2018-05-16T09:20:47.017Z,5.47
2018-05-16T09:23:13.242Z,6.40
2018-05-16T09:25:39.668Z,4.77
2018-05-16T09:28:06.081Z,5.83
2018-05-16T09:30:44.021Z,4.60
2018-05-16T09:33:14.198Z,4.27
2018-05-16T09:35:41.989Z,4.57
2018-05-16T09:38:08.243Z,4.33
2018-05-16T09:40:34.700Z,4.30
2018-05-16T09:43:01.738Z,5.33
2018-05-16T09:45:28.557Z,4.63
2018-05-16T09:47:54.865Z,5.23
2018-05-16T09:50:23.987Z,7.03
2018-05-16T09:52:50.371Z,6.73
2018-05-16T09:55:34.362Z,6.30
2018-05-16T09:58:06.743Z,5.53
2018-05-16T10:00:34.372Z,6.90
2018-05-16T10:03:00.699Z,5.90
2018-05-16T10:05:27.197Z,6.77
2018-05-16T10:08:02.097Z,7.77
2018-05-16T10:10:28.840Z,7.43
2018-05-16T10:12:56.113Z,10.03
2018-05-16T10:15:27.225Z,9.17
2018-05-16T10:17:55.521Z,8.40
2018-05-16T10:20:22.460Z,8.10
2018-05-16T10:22:48.776Z,10.00
2018-05-16T10:25:18.871Z,9.17
2018-05-16T10:27:45.211Z,9.53
2018-05-16T10:30:11.701Z,8.67
2018-05-16T10:32:40.458Z,9.17
2018-05-16T10:35:07.576Z,8.37
2018-05-16T10:37:33.883Z,6.27
2018-05-16T10:40:06.318Z,7.70
2018-05-16T10:42:32.669Z,7.83
2018-05-16T10:44:58.929Z,8.30
2018-05-16T10:47:25.270Z,8.27
2018-05-16T10:49:58.250Z,8.43
2018-05-16T10:52:24.472Z,9.27
2018-05-16T10:54:50.655Z,8.33
2018-05-16T10:57:17.523Z,9.30
2018-05-16T10:59:43.812Z,8.00
2018-05-16T11:04:43.603Z,7.23
2018-05-16T11:07:10.764Z,6.93
2018-05-16T11:09:37.716Z,7.83
2018-05-16T11:12:06.025Z,7.30
2018-05-16T11:14:34.324Z,8.60
2018-05-16T11:17:00.497Z,6.03
2018-05-16T11:19:26.680Z,6.30
2018-05-16T11:21:52.967Z,5.50
2018-05-16T11:24:19.162Z,5.97
2018-05-16T11:26:45.351Z,5.67
2018-05-16T11:29:12.514Z,6.80
2018-05-16T11:31:38.846Z,6.63
2018-05-16T11:34:05.853Z,6.30
2018-05-16T11:36:32.218Z,7.77
2018-05-16T11:39:01.199Z,6.40
2018-05-16T11:41:27.423Z,6.60
2018-05-16T11:43:53.611Z,7.27
2018-05-16T11:46:19.750Z,6.77
2018-05-16T11:48:45.922Z,6.90
2018-05-16T11:51:16.559Z,6.17
2018-05-16T11:56:42.730Z,6.83
2018-05-16T12:01:58.994Z,6.33
2018-05-16T12:04:25.281Z,6.03
2018-05-16T12:06:57.135Z,6.80
2018-05-16T12:09:23.369Z,5.63
2018-05-16T12:11:49.787Z,5.87
2018-05-16T12:14:16.047Z,6.10
2018-05-16T12:16:42.338Z,6.00
2018-05-16T12:19:08.836Z,5.10
2018-05-16T12:21:35.177Z,5.47
2018-05-16T12:24:01.562Z,5.90
2018-05-16T12:26:28.607Z,5.53
2018-05-16T12:28:56.005Z,5.43
2018-05-16T12:31:22.226Z,5.80
2018-05-16T12:33:48.432Z,6.50
2018-05-16T12:36:15.423Z,4.47
2018-05-16T12:38:41.641Z,4.10
2018-05-16T12:41:09.002Z,7.23
2018-05-16T12:43:35.274Z,5.50
2018-05-16T12:46:01.520Z,6.83
2018-05-16T12:48:27.613Z,6.00
2018-05-16T12:50:53.773Z,5.10
2018-05-16T12:53:20.672Z,5.37
2018-05-16T12:55:46.951Z,5.40
2018-05-16T12:58:13.811Z,5.10
2018-05-16T13:00:40.669Z,4.90
2018-05-16T13:03:06.852Z,6.70
2018-05-16T13:05:33.036Z,4.50
2018-05-16T13:07:59.176Z,5.00
2018-05-16T13:10:25.314Z,5.13
2018-05-16T13:12:51.471Z,5.10
2018-05-16T13:15:17.582Z,5.63
2018-05-16T13:17:43.714Z,4.33
2018-05-16T13:20:10.596Z,3.73
2018-05-16T13:22:36.746Z,4.73
2018-05-16T13:25:03.002Z,6.17
2018-05-16T13:27:29.854Z,4.60
2018-05-16T13:29:56.817Z,4.10
2018-05-16T13:32:23.149Z,4.17
2018-05-16T13:34:49.388Z,3.70
2018-05-16T13:37:15.618Z,4.10
2018-05-16T13:39:41.770Z,3.63
2018-05-16T13:42:14.928Z,3.57
2018-05-16T13:44:41.068Z,6.03
2018-05-16T13:47:07.250Z,3.80
2018-05-16T13:49:33.358Z,3.60
2018-05-16T13:51:59.597Z,4.03
2018-05-16T13:54:26.581Z,3.40
2018-05-16T13:56:52.754Z,3.90
2018-05-16T13:59:18.910Z,4.97
2018-05-16T14:01:45.258Z,3.30
2018-05-16T14:04:11.443Z,3.40
2018-05-16T14:06:39.829Z,4.07
2018-05-16T14:09:06.135Z,4.83
2018-05-16T14:11:32.252Z,4.27
2018-05-16T14:13:58.482Z,3.33
2018-05-16T14:16:24.716Z,4.10
2018-05-16T14:18:50.917Z,5.00
2018-05-16T14:21:17.134Z,3.77
2018-05-16T14:23:43.371Z,3.90
2018-05-16T14:26:09.841Z,4.23
2018-05-16T14:28:36.114Z,4.37
2018-05-16T14:31:02.187Z,4.83
2018-05-16T14:33:31.188Z,5.20
2018-05-16T14:35:57.518Z,4.20
2018-05-16T14:38:23.915Z,4.73
2018-05-16T14:40:50.283Z,4.57
2018-05-16T14:43:16.469Z,4.40
2018-05-16T14:45:42.774Z,4.40
2018-05-16T14:48:11.026Z,4.87
2018-05-16T14:50:37.232Z,4.73
2018-05-16T14:53:04.337Z,6.07
2018-05-16T14:55:30.649Z,4.83
2018-05-16T14:57:57.073Z,5.33
2018-05-16T15:00:23.621Z,4.37
2018-05-16T15:02:50.089Z,3.77
2018-05-16T15:05:16.775Z,3.70
2018-05-16T15:07:43.459Z,3.70
2018-05-16T15:10:10.703Z,4.20
2018-05-16T15:12:36.993Z,4.60
2018-05-16T15:15:03.351Z,4.00
2018-05-16T15:17:29.592Z,5.03
2018-05-16T15:19:55.840Z,4.07
2018-05-16T15:22:22.522Z,3.70
2018-05-16T15:24:49.036Z,4.10
2018-05-16T15:27:15.362Z,3.23
2018-05-16T15:29:42.840Z,3.90
2018-05-16T15:32:10.600Z,4.73
2018-05-16T15:34:37.784Z,9.07
2018-05-16T15:37:04.170Z,4.87
2018-05-16T15:39:30.414Z,4.27
2018-05-16T15:41:56.775Z,14.70
2018-05-16T15:44:23.431Z,7.57
2018-05-16T15:46:50.495Z,6.60
2018-05-16T15:49:16.907Z,5.53
2018-05-16T15:51:43.276Z,5.40
2018-05-16T15:54:09.526Z,5.27
2018-05-16T15:56:35.795Z,5.60
2018-05-16T15:59:03.709Z,4.50
2018-05-16T16:01:30.978Z,5.10
2018-05-16T16:03:58.234Z,5.53
2018-05-16T16:06:25.867Z,5.03
2018-05-16T16:08:52.273Z,10.00
2018-05-16T16:11:18.530Z,7.13
2018-05-16T16:13:45.538Z,5.10
2018-05-16T16:16:11.767Z,5.10
2018-05-16T16:18:38.105Z,5.37
2018-05-16T16:21:04.725Z,5.03
2018-05-16T16:23:31.058Z,5.70
2018-05-16T16:25:57.263Z,5.07
2018-05-16T16:28:23.516Z,4.90
2018-05-16T16:30:49.772Z,4.60
2018-05-16T16:33:17.032Z,4.97
2018-05-16T16:35:43.270Z,5.37
2018-05-16T16:38:09.694Z,5.13
2018-05-16T16:40:36.752Z,4.93
2018-05-16T16:43:03.092Z,4.83
2018-05-16T16:45:29.740Z,4.50
2018-05-16T16:47:55.892Z,6.80
2018-05-16T16:50:22.476Z,5.30
2018-05-16T16:52:48.957Z,6.83
2018-05-16T16:55:15.866Z,5.23
2018-05-16T16:57:42.383Z,5.00
2018-05-16T17:00:09.475Z,5.77
2018-05-16T17:02:36.073Z,5.90
2018-05-16T17:05:02.711Z,6.47
2018-05-16T17:07:29.206Z,6.50
2018-05-16T17:09:55.403Z,5.10
2018-05-16T17:12:21.995Z,6.20
2018-05-16T17:14:48.393Z,6.10
2018-05-16T17:17:14.635Z,6.07
2018-05-16T17:19:40.852Z,6.73
2018-05-16T17:22:07.768Z,5.77
2018-05-16T17:24:34.026Z,6.07
2018-05-16T17:27:00.331Z,6.60
2018-05-16T17:29:27.390Z,6.07
2018-05-16T17:31:53.620Z,6.40
2018-05-16T17:34:19.768Z,6.47
2018-05-16T17:36:45.918Z,7.20
2018-05-16T17:39:12.501Z,7.13
2018-05-16T17:41:38.642Z,7.60
2018-05-16T17:44:04.950Z,9.80
2018-05-16T17:46:31.311Z,9.13
2018-05-16T17:48:57.724Z,10.37
2018-05-16T17:51:23.898Z,10.80
2018-05-16T17:53:50.213Z,10.87
2018-05-16T17:56:16.350Z,10.27
2018-05-16T17:58:43.522Z,12.23
2018-05-16T18:01:09.867Z,10.53
2018-05-16T18:03:36.014Z,11.00
2018-05-16T18:06:02.256Z,10.53
2018-05-16T18:08:28.373Z,11.33
2018-05-16T18:10:55.424Z,10.50
2018-05-16T18:13:51.560Z,13.20
2018-05-16T18:16:30.082Z,12.73
2018-05-16T18:18:56.626Z,10.43
2018-05-16T18:21:22.869Z,12.17
2018-05-16T18:23:49.846Z,11.13
2018-05-16T18:26:16.073Z,11.47
2018-05-16T18:28:42.256Z,11.60
2018-05-16T18:31:09.150Z,11.67
2018-05-16T18:33:35.428Z,12.63
2018-05-16T18:36:01.707Z,11.90
2018-05-16T18:38:27.921Z,11.67
2018-05-16T18:40:54.129Z,12.40
2018-05-16T18:43:20.350Z,12.73
2018-05-16T18:45:47.391Z,12.90
2018-05-16T18:48:13.574Z,14.07
2018-05-16T18:50:39.756Z,13.10
2018-05-16T18:53:05.927Z,14.67
2018-05-16T18:55:32.190Z,18.37
2018-05-16T18:57:58.434Z,13.53
2018-05-16T19:00:25.467Z,12.63
2018-05-16T19:02:51.668Z,13.83
2018-05-16T19:05:17.865Z,14.63
2018-05-16T19:07:44.004Z,12.60
2018-05-16T19:10:10.907Z,15.67
2018-05-16T19:12:37.133Z,12.97
2018-05-16T19:15:03.356Z,12.90
2018-05-16T19:17:30.384Z,13.03
2018-05-16T19:19:58.202Z,12.83
2018-05-16T19:22:25.060Z,12.37
2018-05-16T19:24:51.320Z,13.30
2018-05-16T19:27:18.382Z,13.70
2018-05-16T19:29:44.732Z,12.97
2018-05-16T19:32:11.192Z,13.50
2018-05-16T19:34:37.946Z,13.73
2018-05-16T19:37:09.407Z,16.23
2018-05-16T19:39:35.543Z,16.47
2018-05-16T19:42:01.898Z,14.13
2018-05-16T19:44:29.282Z,14.43
2018-05-16T19:46:55.874Z,14.23
2018-05-16T19:49:22.182Z,13.23
2018-05-16T19:51:49.368Z,15.17
2018-05-16T19:54:15.507Z,15.67
2018-05-16T19:56:41.693Z,13.40
2018-05-16T19:59:07.995Z,15.77
2018-05-16T20:01:34.564Z,15.37
2018-05-16T20:04:01.333Z,15.90
2018-05-16T20:06:28.221Z,16.50
2018-05-16T20:08:54.630Z,14.80
2018-05-16T20:11:20.910Z,15.27
2018-05-16T20:13:47.184Z,17.60
2018-05-16T20:16:13.308Z,16.13
2018-05-16T20:18:39.492Z,17.00
2018-05-16T20:21:07.888Z,15.77
2018-05-16T20:23:34.095Z,16.00
2018-05-16T20:26:00.247Z,15.33
2018-05-16T20:28:26.713Z,16.53
2018-05-16T20:30:52.840Z,16.43
2018-05-16T20:33:19.231Z,15.33
2018-05-16T20:35:45.383Z,16.60
2018-05-16T20:38:11.541Z,20.03
2018-05-16T20:40:37.849Z,19.23
2018-05-16T20:43:04.003Z,24.40
2018-05-16T20:45:30.527Z,43.10
2018-05-16T20:47:56.898Z,71.67
2018-05-16T20:50:22.954Z,31.03
2018-05-16T20:52:49.097Z,37.13
2018-05-16T20:55:15.190Z,19.00
2018-05-16T20:57:41.349Z,17.77
2018-05-16T21:00:07.500Z,18.73
2018-05-16T21:02:33.881Z,20.23
2018-05-16T21:05:00.045Z,17.30
2018-05-16T21:07:26.159Z,16.70
2018-05-16T21:09:52.298Z,17.07
2018-05-16T21:12:18.508Z,15.87
2018-05-16T21:14:44.680Z,16.97
2018-05-16T21:17:11.041Z,16.50
2018-05-16T21:19:37.267Z,17.00
2018-05-16T21:22:05.857Z,21.33
2018-05-16T21:24:32.018Z,20.07
2018-05-16T21:26:58.168Z,16.77
2018-05-16T21:29:25.081Z,17.57
2018-05-16T21:31:51.316Z,19.27
2018-05-16T21:34:17.486Z,17.97
2018-05-16T21:36:43.708Z,19.17
2018-05-16T21:39:10.970Z,19.20
2018-05-16T21:41:37.852Z,20.17
2018-05-16T21:44:04.442Z,19.60
2018-05-16T21:46:30.661Z,21.43
2018-05-16T21:48:57.672Z,23.13
2018-05-16T21:51:25.209Z,19.43
2018-05-16T21:53:51.437Z,21.23
2018-05-16T21:56:17.656Z,20.83
2018-05-16T21:58:43.890Z,21.83
2018-05-16T22:01:10.118Z,20.73
2018-05-16T22:03:36.855Z,20.73
2018-05-16T22:06:03.236Z,19.33
2018-05-16T22:08:29.663Z,21.77
2018-05-16T22:10:56.226Z,20.47
2018-05-16T22:13:22.533Z,22.77
2018-05-16T22:15:48.791Z,22.67
2018-05-16T22:18:15.236Z,21.03
2018-05-16T22:20:41.484Z,21.20
2018-05-16T22:23:07.678Z,20.90
2018-05-16T22:25:34.329Z,21.50
2018-05-16T22:28:00.545Z,20.50
2018-05-16T22:30:32.732Z,22.30
2018-05-16T22:33:05.092Z,21.17
2018-05-16T22:35:37.651Z,24.90
2018-05-16T22:38:10.668Z,21.07
2018-05-16T22:40:43.285Z,20.07
2018-05-16T22:43:09.591Z,22.40
2018-05-16T22:45:36.698Z,22.03
2018-05-16T22:48:02.824Z,95.43
2018-05-16T22:50:29.185Z,31.27
2018-05-16T22:52:55.608Z,32.67
2018-05-16T22:55:22.017Z,28.07
2018-05-16T22:57:48.182Z,244.87
2018-05-16T23:00:17.494Z,115.53
2018-05-16T23:02:43.643Z,98.53
2018-05-16T23:05:11.049Z,50.23
2018-05-16T23:07:37.905Z,182.13
2018-05-16T23:10:04.056Z,298.83
2018-05-16T23:12:30.836Z,80.63
2018-05-16T23:14:57.657Z,47.67
2018-05-16T23:17:24.157Z,73.90
2018-05-16T23:19:50.591Z,42.10
2018-05-16T23:22:16.779Z,27.20
2018-05-16T23:24:42.977Z,42.70
2018-05-16T23:27:09.167Z,33.97
2018-05-16T23:29:35.485Z,29.70
2018-05-16T23:32:01.766Z,30.07
2018-05-16T23:34:27.913Z,37.73
2018-05-16T23:36:54.097Z,33.80
2018-05-16T23:39:20.522Z,30.83
2018-05-16T23:41:46.703Z,63.50
2018-05-16T23:44:12.819Z,84.83
2018-05-16T23:46:38.951Z,92.90
2018-05-16T23:49:05.067Z,84.27
2018-05-16T23:51:31.427Z,164.13
2018-05-16T23:53:57.549Z,275.33
2018-05-16T23:56:23.732Z,421.40
2018-05-16T23:58:49.847Z,144.80
